ADDS METAR Data INFO
IDs: Format: Raw Decoded Include TAF

Data at: 2307 UTC 21 Feb 2018

KDAN 212253Z AUTO VRB03KT 10SM CLR 23/17 A3036 RMK AO2 SLP272 T02280167
KDAN 212153Z AUTO VRB05KT 10SM SCT044 SCT050 24/17 A3035 RMK AO2 SLP269 T02390167
KDAN 212053Z AUTO 22010G18KT 10SM FEW040 SCT075 25/17 A3036 RMK AO2 SLP271 T02500167 56017
KDAN 211953Z AUTO 23013G20KT 10SM BKN046 BKN065 25/16 A3037 RMK AO2 SLP276 T02500161
KDAN 211853Z AUTO 21009G16KT 10SM FEW043 OVC055 24/17 A3038 RMK AO2 SLP280 T02440167
KDAN 211753Z AUTO 24010KT 10SM BKN033 OVC043 24/17 A3041 RMK AO2 SLP289 T02440172 10244 20167 58013
KDAN 211653Z AUTO 22008KT 10SM OVC042 23/17 A3043 RMK AO2 SLP298 T02280172
KDAN 211553Z AUTO 21006KT 10SM OVC036 21/18 A3045 RMK AO2 SLP302 T02110178
KDAN 211453Z AUTO VRB06KT 10SM OVC033 19/18 A3045 RMK AO2 SLP302 T01940178 51007
KDAN 211353Z AUTO VRB04KT 10SM OVC031 18/18 A3044 RMK AO2 SLP301 T01780178
KDAN 211253Z AUTO 20005KT 10SM FEW013 OVC029 17/17 A3044 RMK AO2 SLP299 T01720172
KDAN 210753Z AUTO 27003KT 3SM BR BKN011 12/12 A3041 RMK AO2 SLP289 T01170117 $
KDAN 210740Z AUTO 00000KT 2SM BR FEW032 11/11 A3041 RMK AO2 T01110111 $
KDAN 210724Z AUTO 00000KT 4SM BR FEW018 BKN032 12/12 A3041 RMK AO2 T01220122 $
KDAN 210653Z AUTO 00000KT 4SM BR BKN020 12/12 A3042 RMK AO2 SLP292 T01170117 $
KDAN 210633Z AUTO 29004KT 3SM BR SCT014 11/11 A3041 RMK AO2 T01110111 $
KDAN 210631Z AUTO 28003KT 2 1/2SM BR BKN014 11/11 A3041 RMK AO2 T01110111 $
KDAN 210605Z AUTO 09004KT 3/4SM BR VV014 12/12 A3039 RMK AO2 T01170117
KDAN 210601Z AUTO 09004KT 1 1/4SM BR FEW013 11/11 A3039 RMK AO2 T01060106
KDAN 210553Z AUTO 00000KT 1SM BR VV013 11/11 A3040 RMK AO2 SLP287 T01110111 10178 20106 58005
KDAN 201514Z AUTO 00000KT 10SM BKN004 OVC017 13/13 A3046 RMK AO2 T01280128 $
KDAN 201506Z AUTO 23003KT 10SM SCT002 OVC017 13/13 A3046 RMK AO2 T01280128 $
KDAN 201453Z AUTO 00000KT 5SM BR BKN002 OVC017 12/12 A3047 RMK AO2 SLP313 T01220122 51005 $
KDAN 201448Z AUTO 17003KT 4SM BR BKN002 OVC017 12/12 A3047 RMK AO2 $
KDAN 201407Z AUTO 00000KT 2 1/2SM BR OVC002 11/11 A3048 RMK AO2 T01110111
KDAN 201353Z AUTO 00000KT 3SM BR BKN003 OVC010 11/11 A3047 RMK AO2 CIG 001V007 SLP313 T01110111
KDAN 201341Z AUTO 00000KT 3SM BR BKN004 BKN010 OVC014 11/11 A3046 RMK AO2 CIG 001V007 T01110111
KDAN 201331Z AUTO 18003KT 2 1/2SM BR SCT002 OVC012 11/11 A3046 RMK AO2 T01110111
KDAN 201318Z AUTO 00000KT 3SM BR BKN002 OVC012 11/11 A3046 RMK AO2 T01110111
KDAN 201310Z AUTO 00000KT 2 1/2SM BR BKN002 OVC012 11/11 A3046 RMK AO2 T01110111
KDAN 201253Z AUTO 00000KT 1 1/2SM BR OVC004 11/11 A3045 RMK AO2 SLP308 T01060106
KDAN 201218Z AUTO 00000KT 1/2SM FG VV003 11/11 A3044 RMK AO2 T01060106
KDAN 201206Z AUTO 00000KT 1SM BR VV003 11/11 A3044 RMK AO2 T01060106
KDAN 201153Z AUTO 00000KT 3/4SM BR VV003 11/11 A3043 RMK AO2 SLP301 70001 T01060106 10106 20100 53012
KDAN 201133Z AUTO 00000KT 3/4SM BR VV003 11/11 A3043 RMK AO2 T01060106 $